createdAt,value
2018-11-23T00:00:58.055Z,90.10
2018-11-23T00:03:25.863Z,89.90
2018-11-23T00:05:53.591Z,89.40
2018-11-23T00:08:38.401Z,89.00
2018-11-23T00:11:06.257Z,89.00
2018-11-23T00:13:34.599Z,89.40
2018-11-23T00:16:02.616Z,89.40
2018-11-23T00:18:31.571Z,89.40
2018-11-23T00:20:59.270Z,89.20
2018-11-23T00:23:26.970Z,88.60
2018-11-23T00:25:54.744Z,87.90
2018-11-23T00:28:22.559Z,87.50
2018-11-23T00:30:50.313Z,87.10
2018-11-23T00:33:18.094Z,86.60
2018-11-23T00:35:45.854Z,86.90
2018-11-23T00:38:13.611Z,87.90
2018-11-23T00:40:41.613Z,88.40
2018-11-23T00:43:09.650Z,88.60
2018-11-23T00:45:42.768Z,89.00
2018-11-23T00:48:05.526Z,89.60
2018-11-23T00:50:33.225Z,89.40
2018-11-23T00:53:01.305Z,90.10
2018-11-23T00:55:29.764Z,90.10
2018-11-23T00:57:57.796Z,90.10
2018-11-23T01:00:26.994Z,89.90
2018-11-23T01:02:56.093Z,90.10
2018-11-23T01:05:23.944Z,89.60
2018-11-23T01:07:51.933Z,88.80
2018-11-23T01:10:21.014Z,87.50
2018-11-23T01:12:49.694Z,86.20
2018-11-23T01:15:17.669Z,85.80
2018-11-23T01:17:45.441Z,85.30
2018-11-23T01:20:15.692Z,85.30
2018-11-23T01:22:44.328Z,85.30
2018-11-23T01:25:13.522Z,84.70
2018-11-23T01:27:42.218Z,84.70
2018-11-23T01:30:12.648Z,84.90
2018-11-23T01:32:40.504Z,85.60
2018-11-23T01:35:08.296Z,86.00
2018-11-23T01:37:36.101Z,84.30
2018-11-23T01:40:04.225Z,83.00
2018-11-23T01:42:32.712Z,82.70
2018-11-23T01:45:00.450Z,82.50
2018-11-23T01:47:28.331Z,82.30
2018-11-23T01:49:55.992Z,82.70
2018-11-23T01:52:23.684Z,83.60
2018-11-23T01:54:51.371Z,83.80
2018-11-23T01:57:19.175Z,83.80
2018-11-23T01:59:46.846Z,84.00
2018-11-23T02:02:14.561Z,85.10
2018-11-23T02:04:42.330Z,85.50
2018-11-23T02:07:10.128Z,85.60
2018-11-23T02:09:38.198Z,85.30
2018-11-23T02:12:06.084Z,85.10
2018-11-23T02:14:33.757Z,84.50
2018-11-23T02:17:01.413Z,84.30
2018-11-23T02:19:29.150Z,83.80
2018-11-23T02:21:56.960Z,83.60
2018-11-23T02:24:24.652Z,83.60
2018-11-23T02:26:52.373Z,83.80
2018-11-23T02:29:20.325Z,84.00
2018-11-23T02:31:49.027Z,84.30
2018-11-23T02:34:16.800Z,84.70
2018-11-23T02:36:44.559Z,85.60
2018-11-23T02:39:12.563Z,86.40
2018-11-23T02:41:40.535Z,86.20
2018-11-23T02:44:08.326Z,86.40
2018-11-23T02:46:36.170Z,86.80
2018-11-23T02:49:04.448Z,87.30
2018-11-23T02:51:32.168Z,87.90
2018-11-23T02:54:00.084Z,89.00
2018-11-23T02:56:37.123Z,89.40
2018-11-23T02:59:05.392Z,89.40
2018-11-23T03:01:33.097Z,88.20
2018-11-23T03:04:00.828Z,87.10
2018-11-23T03:06:28.495Z,86.20
2018-11-23T03:08:56.208Z,85.80
2018-11-23T03:11:23.931Z,85.80
2018-11-23T03:13:51.605Z,85.80
2018-11-23T03:16:19.337Z,86.00
2018-11-23T03:18:47.012Z,86.00
2018-11-23T03:21:14.936Z,86.00
2018-11-23T03:23:42.669Z,86.00
2018-11-23T03:26:10.666Z,86.20
2018-11-23T03:28:38.331Z,85.80
2018-11-23T03:31:12.238Z,85.80
2018-11-23T03:33:33.736Z,85.60
2018-11-23T03:36:01.842Z,85.80
2018-11-23T03:38:29.587Z,85.80
2018-11-23T03:40:57.435Z,85.60
2018-11-23T03:43:25.237Z,85.50
2018-11-23T03:45:52.989Z,85.50
2018-11-23T03:48:20.716Z,84.90
2018-11-23T03:50:48.424Z,84.50
2018-11-23T03:53:16.080Z,84.00
2018-11-23T03:55:43.794Z,83.40
2018-11-23T03:58:11.538Z,82.70
2018-11-23T04:00:39.308Z,82.70
2018-11-23T04:03:07.130Z,84.00
2018-11-23T04:05:35.055Z,84.00
2018-11-23T04:08:02.769Z,83.40
2018-11-23T04:10:30.567Z,83.40
2018-11-23T04:12:58.305Z,83.80
2018-11-23T04:15:26.111Z,84.50
2018-11-23T04:17:53.928Z,84.70
2018-11-23T04:20:21.807Z,84.90
2018-11-23T04:22:49.633Z,84.70
2018-11-23T04:25:17.365Z,84.70
2018-11-23T04:27:45.137Z,84.50
2018-11-23T04:30:14.269Z,84.10
2018-11-23T04:32:42.426Z,84.30
2018-11-23T04:35:12.363Z,84.10
2018-11-23T04:37:40.515Z,84.00
2018-11-23T04:40:09.617Z,83.60
2018-11-23T04:42:37.910Z,83.40
2018-11-23T04:45:06.246Z,83.00
2018-11-23T04:47:34.051Z,82.80
2018-11-23T04:50:01.751Z,82.70
2018-11-23T04:52:29.449Z,83.00
2018-11-23T04:54:57.142Z,83.40
2018-11-23T04:57:24.822Z,83.60
2018-11-23T04:59:52.547Z,84.00
2018-11-23T05:02:20.801Z,84.00
2018-11-23T05:04:48.580Z,83.60
2018-11-23T05:07:16.423Z,83.80
2018-11-23T05:09:44.246Z,83.60
2018-11-23T05:12:12.041Z,83.40
2018-11-23T05:14:39.917Z,83.20
2018-11-23T05:17:07.713Z,82.80
2018-11-23T05:19:35.557Z,82.70
2018-11-23T05:22:03.346Z,82.70
2018-11-23T05:24:31.046Z,82.50
2018-11-23T05:26:58.764Z,82.10
2018-11-23T05:29:27.314Z,82.50
2018-11-23T05:31:55.021Z,83.40
2018-11-23T05:34:22.733Z,84.30
2018-11-23T05:36:50.811Z,85.50
2018-11-23T05:39:18.542Z,85.80
2018-11-23T05:41:47.368Z,85.50
2018-11-23T05:44:14.193Z,84.90
2018-11-23T05:46:41.879Z,84.90
2018-11-23T05:49:11.204Z,85.60
2018-11-23T05:51:38.914Z,86.40
2018-11-23T05:54:06.702Z,86.90
2018-11-23T05:56:34.356Z,87.30
2018-11-23T05:59:02.058Z,87.90
2018-11-23T06:01:29.799Z,88.20
2018-11-23T06:03:57.497Z,88.60
2018-11-23T06:06:25.938Z,88.80
2018-11-23T06:08:52.908Z,88.80
2018-11-23T06:11:20.629Z,87.90
2018-11-23T06:13:48.253Z,87.30
2018-11-23T06:16:15.950Z,86.90
2018-11-23T06:18:43.646Z,87.10
2018-11-23T06:21:11.616Z,87.50
2018-11-23T06:23:39.797Z,87.70
2018-11-23T06:26:17.573Z,88.10
2018-11-23T06:28:45.313Z,88.20
2018-11-23T06:31:13.493Z,88.10
2018-11-23T06:33:43.101Z,87.70
2018-11-23T06:36:10.860Z,87.70
2018-11-23T06:38:38.977Z,87.70
2018-11-23T06:41:10.427Z,87.70
2018-11-23T06:43:35.823Z,87.70
2018-11-23T06:46:04.845Z,87.70
2018-11-23T06:48:32.836Z,87.70
2018-11-23T06:51:00.572Z,87.70
2018-11-23T06:53:28.365Z,87.50
2018-11-23T06:55:56.982Z,87.90
2018-11-23T06:58:25.788Z,88.10
2018-11-23T07:00:54.168Z,87.90
2018-11-23T07:03:22.126Z,87.30
2018-11-23T07:05:49.995Z,87.10
2018-11-23T07:08:17.875Z,86.90
2018-11-23T07:10:45.764Z,86.80
2018-11-23T07:13:13.702Z,86.60
2018-11-23T07:15:41.795Z,86.40
2018-11-23T07:18:10.284Z,86.00
2018-11-23T07:20:38.511Z,85.80
2018-11-23T07:23:06.717Z,85.60
2018-11-23T07:25:34.665Z,85.50
2018-11-23T07:28:03.892Z,85.60
2018-11-23T07:30:32.058Z,84.70
2018-11-23T07:32:59.883Z,83.80
2018-11-23T07:35:27.799Z,83.80
2018-11-23T07:37:55.941Z,83.80
2018-11-23T07:40:36.740Z,83.00
2018-11-23T07:43:04.597Z,83.80
2018-11-23T07:45:33.598Z,84.30
2018-11-23T07:48:01.413Z,84.90
2018-11-23T07:50:29.518Z,85.60
2018-11-23T07:52:57.291Z,88.10
2018-11-23T07:55:25.011Z,82.70
2018-11-23T07:57:52.804Z,71.10
2018-11-23T08:00:22.137Z,56.90
2018-11-23T08:02:50.960Z,50.20
2018-11-23T08:05:19.496Z,46.50
2018-11-23T08:07:47.297Z,43.30
2018-11-23T08:10:15.014Z,39.10
2018-11-23T08:12:44.933Z,36.60
2018-11-23T08:15:16.778Z,35.40
2018-11-23T08:17:45.813Z,36.80
2018-11-23T08:20:15.830Z,38.00
2018-11-23T08:22:43.680Z,39.80
2018-11-23T08:25:12.617Z,41.70
2018-11-23T08:27:40.933Z,44.10
2018-11-23T08:30:14.890Z,47.30
2018-11-23T08:32:42.725Z,49.90
2018-11-23T08:35:10.574Z,52.60
2018-11-23T08:37:38.559Z,55.80
2018-11-23T08:40:12.896Z,57.50
2018-11-23T08:42:41.427Z,59.30
2018-11-23T08:45:11.153Z,61.20
2018-11-23T08:47:38.986Z,62.50
2018-11-23T08:50:10.514Z,64.20
2018-11-23T08:52:38.284Z,65.10
2018-11-23T08:55:06.579Z,66.30
2018-11-23T08:57:34.497Z,67.20
2018-11-23T09:00:02.409Z,67.70
2018-11-23T09:02:30.261Z,68.90
2018-11-23T09:04:57.969Z,69.40
2018-11-23T09:07:31.302Z,69.80
2018-11-23T09:09:59.046Z,70.50
2018-11-23T09:12:27.429Z,71.30
2018-11-23T09:14:55.249Z,72.00
2018-11-23T09:17:35.918Z,71.80
2018-11-23T09:20:04.595Z,73.30
2018-11-23T09:22:32.305Z,73.00
2018-11-23T09:25:00.664Z,72.20
2018-11-23T09:27:28.321Z,71.50
2018-11-23T09:29:56.041Z,71.10
2018-11-23T09:32:23.846Z,71.10
2018-11-23T09:34:52.606Z,70.70
2018-11-23T09:37:20.335Z,70.50
2018-11-23T09:39:48.041Z,70.50
2018-11-23T09:42:15.770Z,70.90
2018-11-23T09:44:43.497Z,71.10
2018-11-23T09:47:11.237Z,70.70
2018-11-23T09:49:42.143Z,70.40
2018-11-23T09:52:10.880Z,69.60
2018-11-23T09:54:38.577Z,68.50
2018-11-23T09:57:06.551Z,67.60
2018-11-23T09:59:34.269Z,65.70
2018-11-23T10:02:01.967Z,64.00
2018-11-23T10:04:29.755Z,60.50
2018-11-23T10:06:57.478Z,57.00
2018-11-23T10:09:25.193Z,53.50
2018-11-23T10:11:53.656Z,48.80
2018-11-23T10:14:22.853Z,42.90
2018-11-23T10:16:50.575Z,38.30
2018-11-23T10:19:33.561Z,34.80
2018-11-23T10:22:01.333Z,29.80
2018-11-23T10:24:29.117Z,27.00
2018-11-23T10:26:56.769Z,24.30
2018-11-23T10:29:24.489Z,22.20
2018-11-23T10:31:52.242Z,19.10
2018-11-23T10:34:19.969Z,18.40
2018-11-23T10:36:47.738Z,18.20
2018-11-23T10:39:16.789Z,16.70
2018-11-23T10:41:44.499Z,15.00
2018-11-23T10:44:19.081Z,16.10
2018-11-23T10:46:53.033Z,15.30
2018-11-23T10:49:20.729Z,15.20
2018-11-23T10:51:48.489Z,14.50
2018-11-23T10:54:16.230Z,14.00
2018-11-23T10:56:45.664Z,13.20
2018-11-23T10:59:13.434Z,13.00
2018-11-23T11:01:46.734Z,13.10
2018-11-23T11:04:52.857Z,12.40
2018-11-23T11:07:20.657Z,12.50
2018-11-23T11:09:48.461Z,12.20
2018-11-23T11:12:16.223Z,11.70
2018-11-23T11:14:43.917Z,11.70
2018-11-23T11:17:11.640Z,11.90
2018-11-23T11:19:39.345Z,11.60
2018-11-23T11:22:07.035Z,11.20
2018-11-23T11:24:34.716Z,10.80
2018-11-23T11:27:02.430Z,10.60
2018-11-23T11:29:30.161Z,10.90
2018-11-23T11:31:57.916Z,10.60
2018-11-23T11:34:25.649Z,10.70
2018-11-23T11:36:53.316Z,11.60
2018-11-23T11:39:21.021Z,11.70
2018-11-23T11:41:48.735Z,11.50
2018-11-23T11:44:16.427Z,11.30
2018-11-23T11:46:44.152Z,11.80
2018-11-23T11:49:11.921Z,12.50
2018-11-23T11:51:40.901Z,12.80
2018-11-23T11:54:08.708Z,12.90
2018-11-23T11:56:36.486Z,12.80
2018-11-23T11:59:04.294Z,13.20
2018-11-23T12:01:32.041Z,13.90
2018-11-23T12:04:00.449Z,14.30
2018-11-23T12:06:28.227Z,14.60
2018-11-23T12:08:55.984Z,15.30
2018-11-23T12:11:23.742Z,16.00
2018-11-23T12:13:51.472Z,16.90
2018-11-23T12:16:19.290Z,18.10
2018-11-23T12:18:47.282Z,19.10
2018-11-23T12:21:15.017Z,20.60
2018-11-23T12:23:42.844Z,21.80
2018-11-23T12:26:10.617Z,23.90
2018-11-23T12:28:38.372Z,24.80
2018-11-23T12:31:06.812Z,26.40
2018-11-23T12:33:34.568Z,27.80
2018-11-23T12:36:02.339Z,29.90
2018-11-23T12:38:30.642Z,32.40
2018-11-23T12:40:58.371Z,33.60
2018-11-23T12:43:26.082Z,34.70
2018-11-23T12:45:53.918Z,36.00
2018-11-23T12:48:21.684Z,37.60
2018-11-23T12:50:49.514Z,36.90
2018-11-23T12:53:17.242Z,37.10
2018-11-23T12:55:45.025Z,38.20
2018-11-23T12:58:13.593Z,39.40
2018-11-23T13:00:41.310Z,40.80
2018-11-23T13:03:09.044Z,40.80
2018-11-23T13:05:36.833Z,41.40
2018-11-23T13:08:05.737Z,41.70
2018-11-23T13:10:33.487Z,41.80
2018-11-23T13:13:01.678Z,42.40
2018-11-23T13:15:29.541Z,42.60
2018-11-23T13:17:58.161Z,43.20
2018-11-23T13:20:26.772Z,43.60
2018-11-23T13:22:54.529Z,43.30
2018-11-23T13:25:24.930Z,43.60
2018-11-23T13:27:53.860Z,44.00
2018-11-23T13:30:24.221Z,44.40
2018-11-23T13:32:52.113Z,44.60
2018-11-23T13:35:20.832Z,45.00
2018-11-23T13:37:48.684Z,45.60
2018-11-23T13:40:17.765Z,46.10
2018-11-23T13:42:46.047Z,46.40
2018-11-23T13:45:15.331Z,46.70
2018-11-23T13:47:43.169Z,47.30
2018-11-23T13:50:13.419Z,48.40
2018-11-23T13:52:42.010Z,48.80
2018-11-23T13:55:09.773Z,49.70
2018-11-23T13:57:37.558Z,50.50
2018-11-23T14:00:14.726Z,51.00
2018-11-23T14:02:42.816Z,51.70
2018-11-23T14:05:12.269Z,51.90
2018-11-23T14:07:40.480Z,52.50
2018-11-23T14:10:10.389Z,53.10
2018-11-23T14:12:38.143Z,53.50
2018-11-23T14:15:08.687Z,53.90
2018-11-23T14:17:36.472Z,54.50
2018-11-23T14:20:05.476Z,54.60
2018-11-23T14:22:33.256Z,54.90
2018-11-23T14:25:00.985Z,55.70
2018-11-23T14:27:29.312Z,55.80
2018-11-23T14:29:57.068Z,56.00
2018-11-23T14:32:24.786Z,56.30
2018-11-23T14:34:52.511Z,56.60
2018-11-23T14:37:20.257Z,56.70
2018-11-23T14:39:48.006Z,57.20
2018-11-23T14:42:16.354Z,57.70
2018-11-23T14:44:44.120Z,58.30
2018-11-23T14:47:11.910Z,58.60
2018-11-23T14:49:39.810Z,59.20
2018-11-23T14:52:07.549Z,59.60
2018-11-23T14:54:35.378Z,59.90
2018-11-23T14:57:03.167Z,60.30
2018-11-23T14:59:30.922Z,60.90
2018-11-23T15:01:59.617Z,61.60
2018-11-23T15:04:27.534Z,62.20
2018-11-23T15:06:55.315Z,62.90
2018-11-23T15:09:23.054Z,63.50
2018-11-23T15:11:50.788Z,64.00
2018-11-23T15:14:18.491Z,64.80
2018-11-23T15:16:46.248Z,65.70
2018-11-23T15:19:14.009Z,66.60
2018-11-23T15:21:41.877Z,67.70
2018-11-23T15:24:09.605Z,67.40
2018-11-23T15:26:37.413Z,67.90
2018-11-23T15:29:05.457Z,68.30
2018-11-23T15:31:33.235Z,68.90
2018-11-23T15:34:01.956Z,69.20
2018-11-23T15:36:29.710Z,69.60
2018-11-23T15:38:57.495Z,69.80
2018-11-23T15:41:25.266Z,70.40
2018-11-23T15:43:53.088Z,71.10
2018-11-23T15:46:20.842Z,71.10
2018-11-23T15:48:48.601Z,71.50
2018-11-23T15:51:16.356Z,71.80
2018-11-23T15:53:44.431Z,72.00
2018-11-23T15:56:12.246Z,72.20
2018-11-23T15:58:40.029Z,72.60
2018-11-23T16:01:07.787Z,73.20
2018-11-23T16:03:35.541Z,73.30
2018-11-23T16:06:03.401Z,73.50
2018-11-23T16:08:31.037Z,73.90
2018-11-23T16:10:59.454Z,74.10
2018-11-23T16:13:27.149Z,73.90
2018-11-23T16:15:54.924Z,74.30
2018-11-23T16:18:22.648Z,74.50
2018-11-23T16:20:50.415Z,74.60
2018-11-23T16:23:19.462Z,74.50
2018-11-23T16:25:47.797Z,74.60
2018-11-23T16:28:15.504Z,74.60
2018-11-23T16:30:44.787Z,74.80
2018-11-23T16:33:14.095Z,74.60
2018-11-23T16:35:42.298Z,74.60
2018-11-23T16:38:11.653Z,74.80
2018-11-23T16:40:41.876Z,74.80
2018-11-23T16:43:10.701Z,75.00
2018-11-23T16:45:39.889Z,75.00
2018-11-23T16:48:08.755Z,75.40
2018-11-23T16:50:36.550Z,75.40
2018-11-23T16:53:04.589Z,75.80
2018-11-23T16:55:33.058Z,75.80
2018-11-23T16:58:03.125Z,75.80
2018-11-23T17:00:32.328Z,75.90
2018-11-23T17:03:01.544Z,76.10
2018-11-23T17:05:30.873Z,76.30
2018-11-23T17:07:58.649Z,76.50
2018-11-23T17:10:26.449Z,76.90
2018-11-23T17:12:55.027Z,77.40
2018-11-23T17:15:24.215Z,77.60
2018-11-23T17:17:51.980Z,77.80
2018-11-23T17:20:21.178Z,78.00
2018-11-23T17:22:50.257Z,78.00
2018-11-23T17:25:18.990Z,78.00
2018-11-23T17:27:47.045Z,78.00
2018-11-23T17:30:16.972Z,78.00
2018-11-23T17:32:44.675Z,78.40
2018-11-23T17:35:12.694Z,78.40
2018-11-23T17:37:40.897Z,78.40
2018-11-23T17:40:13.358Z,78.40
2018-11-23T17:42:42.153Z,78.20
2018-11-23T17:45:14.650Z,78.20
2018-11-23T17:47:42.486Z,78.20
2018-11-23T17:50:14.053Z,78.40
2018-11-23T17:52:42.653Z,78.40
2018-11-23T17:55:11.295Z,78.40
2018-11-23T17:57:39.797Z,78.40
2018-11-23T18:00:15.363Z,78.60
2018-11-23T18:02:43.637Z,78.40
2018-11-23T18:05:12.791Z,78.40
2018-11-23T18:07:40.772Z,78.40
2018-11-23T18:10:11.296Z,78.40
2018-11-23T18:12:39.081Z,78.40
2018-11-23T18:15:10.736Z,78.40
2018-11-23T18:17:38.535Z,78.20
2018-11-23T18:20:08.518Z,78.40
2018-11-23T18:22:36.357Z,78.20
2018-11-23T18:25:04.867Z,78.20
2018-11-23T18:27:33.632Z,78.60
2018-11-23T18:30:00.506Z,78.60
2018-11-23T18:32:28.288Z,78.70
2018-11-23T18:34:55.995Z,78.90
2018-11-23T18:37:23.872Z,78.90
2018-11-23T18:39:51.702Z,79.10
2018-11-23T18:42:19.478Z,79.30
2018-11-23T18:44:47.321Z,79.30
2018-11-23T18:47:15.233Z,79.70
2018-11-23T18:49:43.105Z,80.00
2018-11-23T18:52:10.934Z,80.20
2018-11-23T18:54:38.663Z,80.60
2018-11-23T18:57:06.550Z,80.60
2018-11-23T18:59:34.317Z,80.40
2018-11-23T19:02:02.094Z,80.80
2018-11-23T19:04:29.837Z,80.80
2018-11-23T19:06:57.598Z,81.00
2018-11-23T19:09:25.379Z,81.00
2018-11-23T19:11:53.908Z,81.20
2018-11-23T19:14:21.650Z,81.20
2018-11-23T19:16:49.482Z,81.40
2018-11-23T19:19:17.225Z,81.40
2018-11-23T19:21:45.027Z,81.20
2018-11-23T19:24:19.720Z,81.40
2018-11-23T19:26:48.151Z,81.40
2018-11-23T19:29:15.924Z,81.50
2018-11-23T19:31:43.754Z,81.50
2018-11-23T19:34:11.512Z,81.50
2018-11-23T19:36:39.271Z,81.50
2018-11-23T19:39:07.965Z,81.70
2018-11-23T19:41:35.668Z,81.90
2018-11-23T19:44:03.489Z,81.70
2018-11-23T19:46:31.290Z,81.70
2018-11-23T19:48:59.042Z,81.90
2018-11-23T19:51:26.857Z,81.70
2018-11-23T19:53:54.713Z,81.90
2018-11-23T19:56:22.657Z,81.90
2018-11-23T19:58:50.570Z,82.10
2018-11-23T20:01:18.338Z,82.10
2018-11-23T20:03:46.129Z,82.10
2018-11-23T20:06:14.083Z,82.10
2018-11-23T20:08:42.010Z,82.10
2018-11-23T20:11:09.749Z,82.50
2018-11-23T20:13:37.548Z,82.50
2018-11-23T20:16:05.686Z,82.70
2018-11-23T20:18:33.596Z,82.50
2018-11-23T20:21:01.448Z,82.50
2018-11-23T20:23:29.781Z,82.50
2018-11-23T20:25:58.003Z,82.50
2018-11-23T20:28:26.331Z,82.50
2018-11-23T20:30:54.163Z,82.10
2018-11-23T20:33:22.030Z,82.10
2018-11-23T20:35:50.998Z,82.10
2018-11-23T20:38:18.725Z,81.90
2018-11-23T20:40:46.442Z,81.90
2018-11-23T20:43:14.149Z,81.90
2018-11-23T20:45:42.989Z,81.90
2018-11-23T20:48:10.765Z,81.70
2018-11-23T20:50:39.485Z,81.50
2018-11-23T20:53:07.694Z,81.70
2018-11-23T20:55:35.416Z,82.10
2018-11-23T20:58:03.197Z,81.90
2018-11-23T21:00:31.097Z,81.90
2018-11-23T21:02:59.654Z,81.90
2018-11-23T21:05:27.412Z,81.90
2018-11-23T21:07:55.175Z,81.90
2018-11-23T21:10:24.755Z,81.70
2018-11-23T21:12:53.034Z,82.10
2018-11-23T21:15:22.113Z,81.90
2018-11-23T21:17:49.897Z,81.90
2018-11-23T21:20:17.765Z,81.90
2018-11-23T21:22:46.224Z,81.70
2018-11-23T21:25:14.955Z,81.90
2018-11-23T21:27:42.663Z,82.50
2018-11-23T21:30:20.524Z,82.50
2018-11-23T21:32:49.790Z,83.40
2018-11-23T21:35:39.166Z,84.30
2018-11-23T21:41:18.854Z,84.90
2018-11-23T21:43:46.607Z,84.30
2018-11-23T21:46:14.425Z,84.30
2018-11-23T21:48:42.324Z,84.30
2018-11-23T21:51:10.146Z,84.30
2018-11-23T21:53:43.511Z,84.00
2018-11-23T21:56:11.282Z,84.70
2018-11-23T21:58:39.074Z,84.90
2018-11-23T22:01:06.788Z,85.10
2018-11-23T22:03:34.574Z,85.10
2018-11-23T22:06:02.415Z,85.10
2018-11-23T22:08:30.937Z,85.10
2018-11-23T22:10:58.616Z,85.30
2018-11-23T22:13:26.368Z,84.70
2018-11-23T22:15:54.118Z,84.30
2018-11-23T22:18:21.849Z,84.70
2018-11-23T22:20:49.614Z,84.50
2018-11-23T22:23:17.378Z,84.50
2018-11-23T22:25:46.130Z,85.30
2018-11-23T22:28:13.872Z,84.90
2018-11-23T22:30:41.564Z,84.50
2018-11-23T22:33:09.307Z,84.10
2018-11-23T22:35:37.002Z,84.70
2018-11-23T22:38:05.000Z,84.90
2018-11-23T22:40:33.674Z,84.90
2018-11-23T22:43:01.382Z,85.10
2018-11-23T22:45:29.086Z,84.90
2018-11-23T22:47:57.667Z,85.50
2018-11-23T22:50:25.453Z,85.30
2018-11-23T22:52:54.093Z,85.30
2018-11-23T22:55:21.871Z,85.50
2018-11-23T22:57:49.589Z,86.60
2018-11-23T23:00:40.300Z,87.70
2018-11-23T23:03:08.416Z,87.90
2018-11-23T23:05:36.203Z,88.40
2018-11-23T23:08:04.408Z,87.50
2018-11-23T23:10:32.142Z,87.30
2018-11-23T23:12:59.910Z,86.80
2018-11-23T23:15:27.645Z,86.40
2018-11-23T23:17:55.419Z,85.60
2018-11-23T23:20:23.257Z,85.50
2018-11-23T23:22:51.085Z,84.70
2018-11-23T23:25:18.826Z,84.50
2018-11-23T23:27:46.512Z,84.30
2018-11-23T23:30:16.873Z,83.60
2018-11-23T23:32:45.333Z,83.60
2018-11-23T23:35:14.032Z,83.80
2018-11-23T23:37:41.881Z,83.00
2018-11-23T23:40:11.449Z,82.80
2018-11-23T23:42:39.302Z,82.50
2018-11-23T23:45:11.209Z,82.10
2018-11-23T23:47:39.017Z,81.90
2018-11-23T23:50:17.663Z,81.50
2018-11-23T23:52:45.438Z,81.40
2018-11-23T23:55:13.149Z,81.40
2018-11-23T23:57:42.129Z,81.40
